Mann, Pennsylvania
Current Conditions -  °F | °C
As of 9:40 PM on Sunday 21 Dec 2014 (Local Time) from KCBE Reporting Station
Clear Clear  
Wind Chill: 32°   Ceiling: Unl
Heat Index: 32°   Visibility: 10mi
Dew Point: 23°   Wind: 3mph
Humidity: 69%   Direction: 360°N
Pressure: 30.32"   Gusts: NA
Location:  39.7658°N, 78.4047°W
Report Text: KCBE 220240Z AUTO 36003KT 10SM CLR 00/M05 A3032 RMK AO1
Loading
Personal Weather Stations






























Interactive Weather Map New forecast layout! Learn more

10-Day Weather Forecast

Advertisements
Track Severe Weather on mobile